createdAt,value
2022-10-22T00:02:20.796Z,100795.47
2022-10-22T00:04:51.001Z,100796.47
2022-10-22T00:07:18.656Z,100786.69
2022-10-22T00:09:45.753Z,100793.00
2022-10-22T00:12:14.495Z,100789.34
2022-10-22T00:14:42.048Z,100788.53
2022-10-22T00:17:11.575Z,100790.34
2022-10-22T00:19:39.186Z,100781.75
2022-10-22T00:22:06.457Z,100771.97
2022-10-22T00:24:34.326Z,100777.09
2022-10-22T00:27:01.330Z,100786.06
2022-10-22T00:29:27.900Z,100796.66
2022-10-22T00:34:22.780Z,100793.16
2022-10-22T00:36:50.221Z,100786.06
2022-10-22T00:39:19.235Z,100760.53
2022-10-22T00:41:47.650Z,100756.03
2022-10-22T00:44:51.917Z,100750.94
2022-10-22T00:47:19.011Z,100746.44
2022-10-22T00:49:47.165Z,100752.41
2022-10-22T00:52:14.254Z,100749.94
2022-10-22T00:54:41.564Z,100758.53
2022-10-22T00:57:08.169Z,100764.84
2022-10-22T00:59:35.721Z,100778.72
2022-10-22T01:02:02.301Z,100784.88
2022-10-22T01:04:28.936Z,100791.00
2022-10-22T01:06:55.545Z,100787.34
2022-10-22T01:09:41.499Z,100771.44
2022-10-22T01:12:14.284Z,100762.63
2022-10-22T01:14:58.422Z,100759.00
2022-10-22T01:17:33.064Z,100746.53
2022-10-22T01:20:11.069Z,100750.03
2022-10-22T01:22:43.356Z,100742.25
2022-10-22T01:25:37.595Z,100743.09
2022-10-22T01:28:07.240Z,100743.88
2022-10-22T01:30:34.359Z,100744.06
2022-10-22T01:33:05.546Z,100748.38
2022-10-22T01:35:35.952Z,100740.44
2022-10-22T01:38:06.468Z,100742.25
2022-10-22T01:40:33.744Z,100738.75
2022-10-22T01:43:02.998Z,100738.59
2022-10-22T01:45:34.168Z,100744.91
2022-10-22T01:48:09.347Z,100749.38
2022-10-22T01:50:44.347Z,100747.56
2022-10-22T01:53:26.164Z,100751.22
2022-10-22T01:56:22.572Z,100759.97
2022-10-22T01:58:58.342Z,100761.81
2022-10-22T02:01:46.344Z,100759.19
2022-10-22T02:04:28.779Z,100772.44
2022-10-22T02:06:58.571Z,100782.03
2022-10-22T02:09:26.281Z,100775.91
2022-10-22T02:11:53.332Z,100780.41
2022-10-22T02:14:20.403Z,100772.63
2022-10-22T02:16:49.312Z,100773.41
2022-10-22T02:19:22.942Z,100777.75
2022-10-22T02:21:49.589Z,100776.91
2022-10-22T02:24:17.045Z,100770.75
2022-10-22T02:26:55.508Z,100770.75
2022-10-22T02:29:26.916Z,100768.94
2022-10-22T02:31:53.879Z,100765.47
2022-10-22T02:34:24.808Z,100754.69
2022-10-22T02:36:51.782Z,100745.25
2022-10-22T02:39:19.341Z,100746.72
2022-10-22T02:41:45.944Z,100747.56
2022-10-22T02:44:12.655Z,100752.88
2022-10-22T02:46:40.156Z,100762.47
2022-10-22T02:49:07.030Z,100755.50
2022-10-22T02:51:34.100Z,100761.44
2022-10-22T02:54:00.662Z,100756.13
2022-10-22T02:56:27.271Z,100756.97
2022-10-22T02:58:53.907Z,100761.25
2022-10-22T03:01:20.525Z,100756.97
2022-10-22T03:03:47.154Z,100760.47
2022-10-22T03:06:14.219Z,100758.59
2022-10-22T03:08:41.276Z,100751.66
2022-10-22T03:11:08.280Z,100749.84
2022-10-22T03:13:34.866Z,100744.53
2022-10-22T03:16:01.904Z,100751.66
2022-10-22T03:18:28.622Z,100754.16
2022-10-22T03:21:14.034Z,100748.19
2022-10-22T03:23:41.550Z,100760.47
2022-10-22T03:26:09.365Z,100763.13
2022-10-22T03:28:36.802Z,100765.75
2022-10-22T03:31:03.389Z,100768.59
2022-10-22T03:33:30.004Z,100772.06
2022-10-22T03:35:56.696Z,100772.06
2022-10-22T03:38:23.301Z,100765.09
2022-10-22T03:40:49.927Z,100763.28
2022-10-22T03:43:16.994Z,100767.75
2022-10-22T03:45:43.577Z,100774.06
2022-10-22T03:48:10.145Z,100777.56
2022-10-22T03:50:36.760Z,100778.38
2022-10-22T03:53:04.082Z,100768.78
2022-10-22T03:55:30.735Z,100779.19
2022-10-22T03:57:57.328Z,100776.72
2022-10-22T04:00:23.990Z,100783.69
2022-10-22T04:02:50.624Z,100790.81
2022-10-22T04:05:17.284Z,100787.16
2022-10-22T04:07:44.031Z,100787.34
2022-10-22T04:10:10.717Z,100792.66
2022-10-22T04:12:37.301Z,100800.59
2022-10-22T04:15:04.872Z,100803.25
2022-10-22T04:17:36.222Z,100801.44
2022-10-22T04:20:04.325Z,100800.59
2022-10-22T04:22:33.722Z,100796.94
2022-10-22T04:25:00.348Z,100801.22
2022-10-22T04:27:33.256Z,100791.63
2022-10-22T04:29:59.881Z,100798.56
2022-10-22T04:32:27.563Z,100786.97
2022-10-22T04:34:54.197Z,100780.84
2022-10-22T04:37:20.881Z,100771.88
2022-10-22T04:39:47.467Z,100769.22
2022-10-22T04:42:14.298Z,100767.41
2022-10-22T04:44:40.892Z,100779.66
2022-10-22T04:47:07.466Z,100774.34
2022-10-22T04:49:34.058Z,100771.88
2022-10-22T04:52:00.630Z,100770.06
2022-10-22T04:54:30.491Z,100765.75
2022-10-22T04:56:59.657Z,100784.34
2022-10-22T04:59:26.428Z,100790.25
2022-10-22T05:01:53.008Z,100792.09
2022-10-22T05:04:19.807Z,100797.38
2022-10-22T05:06:46.477Z,100797.38
2022-10-22T05:09:16.237Z,100786.16
2022-10-22T05:11:48.779Z,100796.75
2022-10-22T05:14:24.452Z,100804.53
2022-10-22T05:16:51.927Z,100804.53
2022-10-22T05:19:26.824Z,100818.81
2022-10-22T05:21:54.825Z,100810.84
2022-10-22T05:24:21.790Z,100810.03
2022-10-22T05:26:55.697Z,100820.44
2022-10-22T05:29:22.766Z,100824.13
2022-10-22T05:31:49.737Z,100821.47
2022-10-22T05:34:16.742Z,100815.50
2022-10-22T05:36:43.495Z,100817.97
2022-10-22T05:39:10.085Z,100806.53
2022-10-22T05:41:37.053Z,100811.84
2022-10-22T05:44:04.648Z,100817.13
2022-10-22T05:46:35.464Z,100811.84
2022-10-22T05:49:04.544Z,100825.09
2022-10-22T05:51:33.344Z,100820.63
2022-10-22T05:54:02.611Z,100821.66
2022-10-22T05:56:31.901Z,100835.72
2022-10-22T05:58:58.912Z,100834.72
2022-10-22T06:01:28.369Z,100839.19
2022-10-22T06:03:56.537Z,100840.03
2022-10-22T06:06:29.193Z,100832.88
2022-10-22T06:08:56.624Z,100841.00
2022-10-22T06:11:23.704Z,100838.19
2022-10-22T06:13:50.994Z,100832.88
2022-10-22T06:16:17.683Z,100831.88
2022-10-22T06:18:44.286Z,100833.72
2022-10-22T06:21:13.403Z,100832.69
2022-10-22T06:23:42.291Z,100835.34
2022-10-22T06:26:10.045Z,100835.19
2022-10-22T06:28:36.873Z,100833.53
2022-10-22T06:31:04.673Z,100835.19
2022-10-22T06:33:34.091Z,100829.03
2022-10-22T06:36:09.216Z,100840.31
2022-10-22T06:38:35.812Z,100839.66
2022-10-22T06:41:04.043Z,100833.53
2022-10-22T06:43:30.685Z,100833.38
2022-10-22T06:46:07.226Z,100838.00
2022-10-22T06:48:36.066Z,100843.31
2022-10-22T06:51:04.510Z,100843.13
2022-10-22T06:53:31.239Z,100843.31
2022-10-22T06:55:57.887Z,100852.91
2022-10-22T06:58:24.481Z,100856.41
2022-10-22T07:01:10.137Z,100865.38
2022-10-22T07:03:37.922Z,100859.22
2022-10-22T07:06:06.496Z,100861.03
2022-10-22T07:08:34.061Z,100870.69
2022-10-22T07:11:11.777Z,100874.13
2022-10-22T07:13:38.519Z,100880.44
2022-10-22T07:16:05.780Z,100884.91
2022-10-22T07:18:33.020Z,100890.03
2022-10-22T07:20:59.844Z,100888.41
2022-10-22T07:23:26.841Z,100892.69
2022-10-22T07:25:53.791Z,100897.19
2022-10-22T07:28:20.739Z,100893.72
2022-10-22T07:30:47.411Z,100906.13
2022-10-22T07:33:14.556Z,100912.28
2022-10-22T07:35:41.837Z,100914.94
2022-10-22T07:38:09.172Z,100917.59
2022-10-22T07:40:36.383Z,100921.88
2022-10-22T07:43:03.607Z,100924.53
2022-10-22T07:45:30.185Z,100918.59
2022-10-22T07:47:56.785Z,100921.88
2022-10-22T07:50:23.369Z,100920.22
2022-10-22T07:52:49.993Z,100920.91
2022-10-22T07:55:16.568Z,100928.84
2022-10-22T07:57:43.211Z,100928.03
2022-10-22T08:00:10.395Z,100928.84
2022-10-22T08:02:36.982Z,100924.34
2022-10-22T08:05:03.688Z,100930.50
2022-10-22T08:07:30.260Z,100940.09
2022-10-22T08:09:56.812Z,100940.94
2022-10-22T08:12:23.412Z,100945.41
2022-10-22T08:14:50.098Z,100948.91
2022-10-22T08:17:16.692Z,100945.41
2022-10-22T08:19:43.309Z,100956.00
2022-10-22T08:22:09.915Z,100948.91
2022-10-22T08:24:36.497Z,100950.72
2022-10-22T08:27:03.112Z,100955.00
2022-10-22T08:29:29.767Z,100959.69
2022-10-22T08:31:56.442Z,100955.19
2022-10-22T08:34:23.021Z,100966.63
2022-10-22T08:36:49.591Z,100963.97
2022-10-22T08:39:16.169Z,100959.69
2022-10-22T08:42:08.461Z,100966.63
2022-10-22T08:44:48.394Z,100964.97
2022-10-22T08:47:24.533Z,100956.00
2022-10-22T08:49:53.632Z,100965.63
2022-10-22T08:52:20.261Z,100965.78
2022-10-22T08:54:52.768Z,100967.47
2022-10-22T08:57:42.732Z,100972.78
2022-10-22T09:00:25.415Z,100970.13
2022-10-22T09:03:15.112Z,100976.22
2022-10-22T09:06:13.827Z,100975.59
2022-10-22T09:08:41.258Z,100976.22
2022-10-22T09:11:13.835Z,100979.72
2022-10-22T09:13:42.254Z,100976.22
2022-10-22T09:16:22.587Z,100973.56
2022-10-22T09:19:20.023Z,100977.88
2022-10-22T09:21:55.357Z,100971.59
2022-10-22T09:24:37.866Z,100965.44
2022-10-22T09:27:18.481Z,100981.19
2022-10-22T09:29:46.138Z,100982.03
2022-10-22T09:32:13.534Z,100982.03
2022-10-22T09:34:40.325Z,100986.31
2022-10-22T09:37:09.016Z,100990.63
2022-10-22T09:39:40.987Z,100990.63
2022-10-22T09:42:11.501Z,100997.75
2022-10-22T09:44:38.780Z,100996.75
2022-10-22T09:47:37.349Z,100988.13
2022-10-22T09:50:09.609Z,101000.38
2022-10-22T09:52:36.286Z,100996.75
2022-10-22T09:55:09.009Z,101001.22
2022-10-22T09:57:37.921Z,100999.41
2022-10-22T10:00:10.667Z,101010.81
2022-10-22T10:02:40.493Z,101007.38
2022-10-22T10:05:08.146Z,101004.72
2022-10-22T10:07:35.748Z,101006.34
2022-10-22T10:10:06.554Z,101002.69
2022-10-22T10:12:47.690Z,101015.13
2022-10-22T10:15:26.284Z,101014.31
2022-10-22T10:18:19.548Z,101021.94
2022-10-22T10:20:52.163Z,101018.44
2022-10-22T10:23:30.603Z,101019.28
2022-10-22T10:26:15.415Z,101020.09
2022-10-22T10:28:57.084Z,101014.94
2022-10-22T10:31:45.235Z,101018.28
2022-10-22T10:34:33.908Z,101010.47
2022-10-22T10:37:09.592Z,101014.94
2022-10-22T10:39:54.640Z,101013.78
2022-10-22T10:42:34.032Z,101012.59
2022-10-22T10:45:45.510Z,101009.75
2022-10-22T10:48:55.636Z,101021.38
2022-10-22T10:51:48.825Z,101019.56
2022-10-22T10:54:30.539Z,101026.50
2022-10-22T10:57:00.830Z,101021.22
2022-10-22T10:59:27.367Z,101021.38
2022-10-22T11:01:53.952Z,101027.88
2022-10-22T11:04:46.489Z,101026.06
2022-10-22T11:07:34.129Z,101034.81
2022-10-22T11:10:05.943Z,101031.16
2022-10-22T11:12:41.535Z,101029.50
2022-10-22T11:15:27.856Z,101027.53
2022-10-22T11:17:59.956Z,101030.19
2022-10-22T11:20:41.316Z,101026.50
2022-10-22T11:23:19.833Z,101024.69
2022-10-22T11:25:49.418Z,101022.69
2022-10-22T11:28:20.142Z,101019.00
2022-10-22T11:30:51.123Z,101014.38
2022-10-22T11:33:20.488Z,101019.50
2022-10-22T11:35:47.873Z,101011.53
2022-10-22T11:38:17.382Z,101016.66
2022-10-22T11:40:49.065Z,101018.50
2022-10-22T11:43:32.179Z,101018.13
2022-10-22T11:46:05.078Z,101015.47
2022-10-22T11:48:37.657Z,101013.66
2022-10-22T11:51:04.992Z,101018.94
2022-10-22T11:53:32.725Z,101025.72
2022-10-22T11:56:09.946Z,101026.91
2022-10-22T11:58:50.743Z,101024.44
2022-10-22T12:01:26.622Z,101023.81
2022-10-22T12:03:56.220Z,101022.16
2022-10-22T12:06:26.154Z,101022.97
2022-10-22T12:09:01.375Z,101021.31
2022-10-22T12:11:36.387Z,101030.94
2022-10-22T12:14:20.581Z,101029.91
2022-10-22T12:16:58.946Z,101025.44
2022-10-22T12:19:31.530Z,101034.41
2022-10-22T12:22:02.340Z,101031.75
2022-10-22T12:24:35.563Z,101034.25
2022-10-22T12:27:02.444Z,101032.22
2022-10-22T12:29:32.041Z,101034.88
2022-10-22T12:32:03.972Z,101026.75
2022-10-22T12:34:30.642Z,101023.91
2022-10-22T12:36:57.207Z,101019.63
2022-10-22T12:39:27.454Z,101022.44
2022-10-22T12:41:54.887Z,101021.44
2022-10-22T12:44:21.492Z,101017.78
2022-10-22T12:46:52.936Z,101023.75
2022-10-22T12:49:25.638Z,101029.50
2022-10-22T12:51:52.329Z,101028.81
2022-10-22T12:54:26.504Z,101031.22
2022-10-22T12:56:54.098Z,101028.66
2022-10-22T12:59:24.580Z,101028.78
2022-10-22T13:01:52.250Z,101032.72
2022-10-22T13:04:28.270Z,101037.00
2022-10-22T13:07:12.837Z,101036.38
2022-10-22T13:09:41.328Z,101039.56
2022-10-22T13:12:14.869Z,101038.44
2022-10-22T13:14:41.446Z,101034.16
2022-10-22T13:17:15.413Z,101038.44
2022-10-22T13:20:01.785Z,101040.13
2022-10-22T13:22:30.235Z,101038.44
2022-10-22T13:25:13.106Z,101039.00
2022-10-22T13:27:50.550Z,101033.88
2022-10-22T13:30:35.150Z,101037.38
2022-10-22T13:33:34.962Z,101037.88
2022-10-22T13:36:01.602Z,101043.19
2022-10-22T13:38:28.690Z,101036.38
2022-10-22T13:40:56.027Z,101037.78
2022-10-22T13:43:23.171Z,101044.56
2022-10-22T13:45:53.601Z,101047.22
2022-10-22T13:48:22.094Z,101050.59
2022-10-22T13:50:49.775Z,101037.78
2022-10-22T13:53:21.405Z,101043.34
2022-10-22T13:55:48.178Z,101047.50
2022-10-22T13:58:19.860Z,101046.50
2022-10-22T14:00:50.014Z,101043.19
2022-10-22T14:03:19.597Z,101038.44
2022-10-22T14:05:47.317Z,101052.91
2022-10-22T14:08:21.375Z,101049.78
2022-10-22T14:10:48.187Z,101052.44
2022-10-22T14:13:17.392Z,101046.22
2022-10-22T14:15:45.627Z,101043.72
2022-10-22T14:18:16.924Z,101047.84
2022-10-22T14:20:43.587Z,101052.16
2022-10-22T14:23:19.917Z,101050.25
2022-10-22T14:25:47.542Z,101056.09
2022-10-22T14:28:14.617Z,101059.56
2022-10-22T14:30:41.312Z,101060.78
2022-10-22T14:33:16.091Z,101054.75
2022-10-22T14:35:42.924Z,101055.00
2022-10-22T14:38:09.602Z,101061.78
2022-10-22T14:40:38.939Z,101063.25
2022-10-22T14:43:05.601Z,101070.88
2022-10-22T14:45:32.356Z,101066.34
2022-10-22T14:47:58.930Z,101070.22
2022-10-22T14:50:25.508Z,101071.31
2022-10-22T14:52:52.297Z,101083.53
2022-10-22T14:55:19.907Z,101067.56
2022-10-22T14:57:46.820Z,101072.41
2022-10-22T15:00:18.235Z,101076.56
2022-10-22T15:02:45.552Z,101073.22
2022-10-22T15:05:12.279Z,101078.53
2022-10-22T15:07:39.309Z,101084.22
2022-10-22T15:10:07.200Z,101084.13
2022-10-22T15:12:33.985Z,101082.38
2022-10-22T15:15:00.571Z,101078.41
2022-10-22T15:17:27.210Z,101086.56
2022-10-22T15:19:55.686Z,101083.91
2022-10-22T15:22:22.529Z,101083.22
2022-10-22T15:24:49.701Z,101082.09
2022-10-22T15:27:16.452Z,101091.44
2022-10-22T15:29:43.298Z,101091.78
2022-10-22T15:32:10.527Z,101094.81
2022-10-22T15:34:39.947Z,101100.47
2022-10-22T15:37:08.948Z,101103.13
2022-10-22T15:39:35.868Z,101104.94
2022-10-22T15:42:02.544Z,101107.81
2022-10-22T15:44:30.722Z,101105.31
2022-10-22T15:46:58.107Z,101105.31
2022-10-22T15:49:26.503Z,101104.50
2022-10-22T15:51:53.768Z,101103.66
2022-10-22T15:54:23.051Z,101108.16
2022-10-22T15:56:49.992Z,101116.13
2022-10-22T15:59:17.337Z,101116.13
2022-10-22T16:01:44.449Z,101117.94
2022-10-22T16:04:11.070Z,101107.50
2022-10-22T16:06:43.003Z,101120.75
2022-10-22T16:09:15.191Z,101122.44
2022-10-22T16:11:42.144Z,101122.63
2022-10-22T16:14:10.902Z,101124.44
2022-10-22T16:16:42.606Z,101125.28
2022-10-22T16:19:13.257Z,101131.38
2022-10-22T16:21:40.086Z,101133.25
2022-10-22T16:24:08.532Z,101130.59
2022-10-22T16:26:36.027Z,101135.72
2022-10-22T16:29:03.451Z,101141.38
2022-10-22T16:31:30.085Z,101140.38
2022-10-22T16:33:57.622Z,101138.88
2022-10-22T16:36:24.566Z,101142.38
2022-10-22T16:38:51.268Z,101150.34
2022-10-22T16:41:21.351Z,101146.84
2022-10-22T16:43:49.758Z,101143.56
2022-10-22T16:46:19.053Z,101155.00
2022-10-22T16:48:51.591Z,101147.03
2022-10-22T16:51:23.666Z,101157.66
2022-10-22T16:53:54.395Z,101160.31
2022-10-22T16:56:21.446Z,101159.50
2022-10-22T16:58:50.696Z,101163.13
2022-10-22T17:01:18.780Z,101166.63
2022-10-22T17:03:45.545Z,101164.16
2022-10-22T17:06:12.339Z,101171.31
2022-10-22T17:08:40.582Z,101172.09
2022-10-22T17:11:12.430Z,101174.13
2022-10-22T17:13:41.146Z,101172.28
2022-10-22T17:16:10.409Z,101176.78
2022-10-22T17:18:38.882Z,101182.91
2022-10-22T17:21:06.313Z,101182.91
2022-10-22T17:23:32.919Z,101190.06
2022-10-22T17:26:01.130Z,101192.88
2022-10-22T17:28:28.906Z,101200.69
2022-10-22T17:31:27.308Z,101205.16
2022-10-22T17:33:55.654Z,101213.13
2022-10-22T17:36:23.571Z,101215.78
2022-10-22T17:38:52.841Z,101207.97
2022-10-22T17:41:22.784Z,101216.78
2022-10-22T17:43:49.617Z,101221.25
2022-10-22T17:46:19.276Z,101224.75
2022-10-22T17:48:49.699Z,101221.06
2022-10-22T17:51:17.069Z,101224.56
2022-10-22T17:53:45.652Z,101215.78
2022-10-22T17:56:14.635Z,101225.38
2022-10-22T17:58:41.375Z,101224.41
2022-10-22T18:01:16.736Z,101224.41
2022-10-22T18:03:43.355Z,101226.06
2022-10-22T18:06:10.602Z,101226.22
2022-10-22T18:08:37.365Z,101230.34
2022-10-22T18:11:09.284Z,101227.69
2022-10-22T18:13:36.306Z,101229.34
2022-10-22T18:16:03.016Z,101228.69
2022-10-22T18:18:29.577Z,101228.69
2022-10-22T18:20:56.302Z,101227.88
2022-10-22T18:23:23.046Z,101230.53
2022-10-22T18:25:49.944Z,101235.03
2022-10-22T18:28:17.764Z,101232.38
2022-10-22T18:30:45.325Z,101231.53
2022-10-22T18:33:16.709Z,101234.19
2022-10-22T18:35:43.307Z,101237.69
2022-10-22T18:38:10.613Z,101228.03
2022-10-22T18:40:43.826Z,101231.53
2022-10-22T18:43:10.368Z,101226.38
2022-10-22T18:45:44.231Z,101228.22
2022-10-22T18:48:13.324Z,101224.56
2022-10-22T18:50:40.108Z,101223.72
2022-10-22T18:53:06.711Z,101225.56
2022-10-22T18:55:34.008Z,101236.00
2022-10-22T18:58:00.615Z,101231.69
2022-10-22T19:00:27.342Z,101240.50
2022-10-22T19:02:54.944Z,101239.66
2022-10-22T19:05:21.675Z,101239.66
2022-10-22T19:07:49.873Z,101238.81
2022-10-22T19:10:17.726Z,101236.16
2022-10-22T19:12:44.311Z,101243.16
2022-10-22T19:15:11.078Z,101247.63
2022-10-22T19:17:37.769Z,101250.28
2022-10-22T19:20:05.126Z,101249.44
2022-10-22T19:22:32.195Z,101255.59
2022-10-22T19:24:58.928Z,101254.75
2022-10-22T19:27:25.676Z,101251.28
2022-10-22T19:29:52.329Z,101256.59
2022-10-22T19:32:20.143Z,101254.75
2022-10-22T19:34:47.298Z,101252.94
2022-10-22T19:37:14.096Z,101260.91
2022-10-22T19:39:40.755Z,101258.25
2022-10-22T19:42:07.345Z,101256.59
2022-10-22T19:44:33.907Z,101255.75
2022-10-22T19:47:00.647Z,101265.19
2022-10-22T19:49:27.234Z,101260.72
2022-10-22T19:51:53.806Z,101274.00
2022-10-22T19:54:20.628Z,101273.00
2022-10-22T19:56:48.076Z,101270.34
2022-10-22T19:59:16.281Z,101275.50
2022-10-22T20:01:42.944Z,101272.38
2022-10-22T20:04:14.866Z,101278.31
2022-10-22T20:06:41.470Z,101281.81
2022-10-22T20:09:08.239Z,101284.47
2022-10-22T20:11:34.821Z,101288.94
2022-10-22T20:14:01.546Z,101287.13
2022-10-22T20:16:29.908Z,101298.75
2022-10-22T20:19:01.844Z,101292.44
2022-10-22T20:21:28.716Z,101293.59
2022-10-22T20:23:57.355Z,101295.25
2022-10-22T20:26:27.779Z,101297.91
2022-10-22T20:28:55.962Z,101302.38
2022-10-22T20:31:24.118Z,101302.38
2022-10-22T20:33:51.117Z,101303.22
2022-10-22T20:36:20.403Z,101302.38
2022-10-22T20:38:48.299Z,101297.06
2022-10-22T20:41:20.529Z,101301.56
2022-10-22T20:43:48.643Z,101306.03
2022-10-22T20:46:22.963Z,101313.00
2022-10-22T20:48:52.865Z,101310.50
2022-10-22T20:51:19.720Z,101314.16
2022-10-22T20:53:46.372Z,101320.16
2022-10-22T20:56:13.054Z,101316.66
2022-10-22T20:58:39.868Z,101321.97
2022-10-22T21:01:10.723Z,101327.28
2022-10-22T21:03:37.864Z,101323.78
2022-10-22T21:06:05.573Z,101331.75
2022-10-22T21:08:32.319Z,101324.78
2022-10-22T21:10:58.945Z,101325.63
2022-10-22T21:13:25.548Z,101327.28
2022-10-22T21:15:52.105Z,101330.94
2022-10-22T21:18:18.668Z,101335.41
2022-10-22T21:20:45.251Z,101339.72
2022-10-22T21:23:11.893Z,101338.91
2022-10-22T21:25:41.969Z,101344.22
2022-10-22T21:28:11.074Z,101345.03
2022-10-22T21:30:44.759Z,101344.22
2022-10-22T21:33:11.493Z,101351.19
2022-10-22T21:35:38.055Z,101351.00
2022-10-22T21:38:05.275Z,101350.16
2022-10-22T21:40:31.938Z,101344.22
2022-10-22T21:42:58.558Z,101358.31
2022-10-22T21:45:25.148Z,101351.34
2022-10-22T21:47:51.699Z,101355.47
2022-10-22T21:50:18.543Z,101353.00
2022-10-22T21:52:45.176Z,101357.50
2022-10-22T21:55:11.783Z,101363.59
2022-10-22T21:57:38.380Z,101366.09
2022-10-22T22:00:06.865Z,101362.81
2022-10-22T22:02:33.682Z,101366.09
2022-10-22T22:05:00.301Z,101371.41
2022-10-22T22:07:26.910Z,101361.78
2022-10-22T22:09:53.497Z,101376.72
2022-10-22T22:12:21.135Z,101377.72
2022-10-22T22:14:47.761Z,101377.56
2022-10-22T22:17:16.505Z,101368.75
2022-10-22T22:19:43.158Z,101363.59
2022-10-22T22:22:09.747Z,101370.44
2022-10-22T22:24:38.288Z,101359.97
2022-10-22T22:27:04.853Z,101364.44
2022-10-22T22:29:31.415Z,101367.94
2022-10-22T22:31:57.991Z,101364.44
2022-10-22T22:34:24.556Z,101371.41
2022-10-22T22:36:51.147Z,101366.09
2022-10-22T22:39:22.767Z,101367.09
2022-10-22T22:41:49.715Z,101367.09
2022-10-22T22:44:16.440Z,101366.25
2022-10-22T22:46:43.317Z,101357.50
2022-10-22T22:49:10.203Z,101361.78
2022-10-22T22:51:36.841Z,101362.81
2022-10-22T22:54:03.732Z,101370.75
2022-10-22T22:56:32.075Z,101363.59
2022-10-22T22:58:58.791Z,101365.28
2022-10-22T23:01:27.573Z,101364.44
2022-10-22T23:04:02.915Z,101359.13
2022-10-22T23:06:31.905Z,101355.66
2022-10-22T23:08:59.018Z,101360.16
2022-10-22T23:11:27.416Z,101352.19
2022-10-22T23:14:00.314Z,101359.13
2022-10-22T23:16:29.274Z,101353.81
2022-10-22T23:18:56.614Z,101362.63
2022-10-22T23:21:28.359Z,101359.13
2022-10-22T23:23:58.288Z,101357.50
2022-10-22T23:26:34.710Z,101360.94
2022-10-22T23:29:22.259Z,101361.78
2022-10-22T23:31:50.050Z,101362.81
2022-10-22T23:34:21.093Z,101360.16
2022-10-22T23:36:47.730Z,101361.97
2022-10-22T23:39:17.480Z,101362.81
2022-10-22T23:41:44.864Z,101361.97
2022-10-22T23:44:12.128Z,101359.31
2022-10-22T23:46:39.273Z,101361.16
2022-10-22T23:49:07.491Z,101359.31
2022-10-22T23:51:34.145Z,101361.97
2022-10-22T23:54:03.157Z,101359.47
2022-10-22T23:56:30.301Z,101360.16
2022-10-22T23:58:57.562Z,101359.47
